ダッカ の空港の天気 - METARとTAF

シャージャラル国際空港(ダッカ) ( VGHS / DAC ) - バングラデシュ ダッカ
飛行場実況気象(Metar)
観測時間08/07 03:30 BDT (08/06 21:30 UTC)
風向・風速南南東 4m/s
視程4000m
天気現象煙霧
少しの雲 雲底高度 460m
全天の4割程度の雲 雲底高度 3050m
気温28℃
湿度79%
気圧1003hPa
METARVGHS 062130Z 16007KT 4000 HZ FEW015 SCT100 28/24 Q1003 NOSIG
過去の天気等 Google飛行場航空写真 Wunderground天気予報

過去48時間のMETAR

飛行場予報(TAF)
発表時間: 8/06 23:00 BDT (8/06 17:00 UTC)
予報対象時間: 7日0時 BDT ~ 8日6時 BDT
風向・風速南東 5m/s
視程3200m
天気現象煙霧
全天の4割程度の雲 雲底高度 370m
全天の8割程度の雲 雲底高度 3050m
7日2時 BDT ~ 7日11時 BDT に一時的に
風向・風速南 13m/s
視程2000m
7日12時 BDT ~ 7日14時 BDT に徐々に
風向・風速南南東 5m/s
視程4000m
天気現象煙霧
全天の4割程度の雲 雲底高度 370m
全天の8割程度の雲 雲底高度 3050m
7日18時 BDT ~ 7日20時 BDT に徐々に
風向・風速東南東 6m/s
視程3500m
天気現象煙霧
全天の4割程度の雲 雲底高度 370m
全天の8割程度の雲 雲底高度 3050m
TAF VGHS 061700Z 0618/0724 14010KT 3200 HZ SCT012 BKN100
TEMPO 0620/0705 18025KT 2000 RA/TSRA BKN008 FEW025CB OVC090
BECMG 0706/0708 16010KT 4000 HZ SCT012 BKN100
BECMG 0712/0714 12012KT 3500 HZ SCT012 BKN100